x

Bodega Bay - 48nm Nnw Of San Francisco, Ca (46013) Wave Buoy

5:50am - Wed 1st Apr 2015 All times are PDT. -7 hours from GMT.

  • Sig Wave height 8.9ft
  • Peak Period 15s
  • Average Period 6s
  • Wind
    27mph, 34mph gusts
  • Sea Temp 52°f
  • Air Temp 52°f
  • Sea Pressure 1022.3mb
  • Bodega Bay - 48nm Nnw Of San Francisco, Ca
  • Bodega Bay - 48nm Nnw Of San Francisco, Ca

More Historic Weather Station data

Upgrade to MSW Pro to gain access to the past 30 days of data for over 8000 Wavebouys and Weather Stations around the globe.

Join Pro

Comparision Forecast

View Surf forecast
   
Wed 04/01 5:50am 9ft 15s 6s 27 34 mph 1022.3mb 52f 52f
4:50am 10ft 12s 7s 27 34 mph 1022.6mb 52f 52f
3:50am 9.5ft 13s 7s 29 36 mph 1022.7mb 52f 52f
2:50am 10ft 15s 6s 29 34 mph 1023.2mb 52f 53f
1:50am 11ft 12s 7s 29 36 mph 1023.8mb 52f 53f
12:50am 10ft 11s 6s 31 36 mph 1023.8mb 53f 53f
Tue 03/31 11:50pm 11ft 15s 7s 31 38 mph 1023.9mb 53f 53f
10:50pm 10ft 11s 7s 31 38 mph 1023.7mb 53f 53f
9:50pm 11ft 15s 7s 29 36 mph 1023.5mb 53f 54f
8:50pm 11ft 15s 7s 31 36 mph 1023.2mb 53f 54f
7:50pm 11ft 11s 6s 34 40 mph 1022.3mb 53f 54f
6:50pm 11ft 11s 6s 34 43 mph 1022.4mb 53f 54f
5:50pm 11ft 12s 6s 34 40 mph 1022.3mb 53f 55f
4:50pm 11ft 12s 6s 36 43 mph 1022mb 53f 55f
3:50pm 9.5ft 12s 6s 31 40 mph 1022.1mb 53f 55f
2:50pm 9.5ft 12s 6s 34 40 mph 1022.1mb 54f 55f
1:50pm 8.5ft 13s 6s 29 36 mph 1022.8mb 54f 55f
12:50pm 9.5ft 11s 7s 29 34 mph 1023.1mb 55f 55f
11:50am 9.5ft 14s 6s 29 34 mph 1023.2mb 54f 55f
10:50am 9ft 11s 7s 29 36 mph 1022.5mb 54f 54f
9:50am 10ft 11s 7s 29 36 mph 1021.9mb 54f 54f
8:50am 10.5ft 12s 7s 29 34 mph 1021.2mb 54f 54f
7:50am 9ft 13s 7s 29 36 mph 1020.7mb 54f 54f
6:50am 9ft 12s 8s 25 29 mph 1020mb 54f 55f
5:50am 9.5ft 12s 9s 20 25 mph 1019.6mb 54f 54f
4:50am 8.5ft 11s 8s 18 20 mph 1019.2mb 54f 54f
3:50am 8ft 12s 8s 18 22 mph 1019.1mb 54f 54f
2:50am 7.5ft 13s 8s 18 22 mph 1019.3mb 53f 54f
1:50am 8ft 12s 7s 18 22 mph 1019.4mb 52f 54f
12:50am 9ft 12s 7s 20 25 mph 1019.3mb 52f 54f
Mon 03/30 11:50pm 8ft 13s 6s 20 25 mph 1019.1mb 52f 54f
10:50pm 10ft 13s 7s 20 25 mph 1018.8mb 52f 54f
9:50pm 9.5ft 12s 7s 22 27 mph 1018.9mb 52f 54f
8:50pm 9ft 13s 7s 25 29 mph 1018.6mb 53f 54f
7:50pm 8.5ft 11s 7s 29 34 mph 1017.4mb 53f 54f
6:50pm 9ft 13s 7s 27 34 mph 1017.1mb 53f 54f
5:50pm  -   -   -  29 34 mph 1016.9mb 53f 55f
4:50pm 11ft 13s 7s 29 38 mph 1017mb 53f 55f
3:50pm 11ft 13s 7s 29 34 mph 1017.4mb 54f 54f
2:50pm 11ft 13s 7s 29 36 mph 1017.9mb 54f 54f
1:50pm 11.5ft 11s 7s 27 34 mph 1018.4mb 54f 53f
12:50pm 11ft 11s 7s 27 31 mph 1018.4mb 54f 54f
11:50am 11ft 12s 7s 25 31 mph 1018.3mb 54f 54f
10:50am 11.5ft 11s 8s 25 31 mph 1018.3mb 53f 54f
9:50am 11ft 12s 7s 25 29 mph 1018.1mb 53f 53f
8:50am 12.5ft 12s 8s 22 29 mph 1017.6mb 53f 53f
7:50am 11.5ft 11s 7s 27 34 mph 1016.8mb 53f 53f
6:50am 11.5ft 11s 7s 27 31 mph 1016.1mb 53f 53f
5:50am 11.5ft 12s 7s 31 36 mph 1015.9mb 54f 53f
4:50am 10.5ft 12s 7s 31 36 mph 1015.9mb 54f 54f
3:50am 10ft 12s 7s 29 36 mph 1016.2mb 53f 54f
2:50am 9ft 11s 7s 25 29 mph 1016.7mb 53f 55f
1:50am 10ft 12s 7s 22 27 mph 1017.2mb 53f 55f
12:50am 9.5ft 11s 7s 22 25 mph 1017.1mb 53f 55f
Sun 03/29 11:50pm 9.5ft 11s 7s 22 27 mph 1017.2mb 53f 56f
10:50pm 10ft 11s 7s 25 29 mph 1017.1mb 54f 56f
9:50pm 11ft 11s 7s 27 31 mph 1016.8mb 54f 56f
8:50pm 10.5ft 12s 7s 27 31 mph 1016.3mb 54f 56f
7:50pm  -   -   -  27 34 mph 1016mb 55f 56f
6:50pm 9ft 12s 6s 27 34 mph 1016.2mb 54f 57f
5:50pm 10ft 8s 6s 29 34 mph 1016.4mb 54f 56f
4:50pm 10ft 11s 6s 25 29 mph 1016.9mb 55f 56f
3:50pm 8.5ft 8s 6s 22 25 mph 1017.6mb 55f 56f
2:50pm 8ft 10s 6s 22 25 mph 1018.2mb 55f 55f
1:50pm 8ft 8s 6s 22 29 mph 1019.1mb 54f 55f
12:50pm 8ft 10s 6s 20 25 mph 1019.6mb 53f 55f
11:50am 8ft 11s 7s 18 22 mph 1020.4mb 53f 54f
10:50am 8ft 9s 7s 16 18 mph 1020.5mb 53f 53f
9:50am 8.5ft 11s 7s 13 18 mph 1020.2mb 52f 53f
8:50am 9ft 11s 7s 20 22 mph 1020.1mb 53f 54f
7:50am 9ft 11s 6s 20 22 mph 1019.7mb 53f 54f
6:50am 10.5ft 8s 7s 25 29 mph 1019mb 52f 54f
5:50am 10.5ft 9s 6s 25 34 mph 1018.4mb 52f 54f
4:50am 10ft 8s 6s 31 36 mph 1018.7mb 52f 54f
3:50am 10.5ft 9s 7s 29 38 mph 1019.3mb 52f 54f
2:50am 10ft 11s 7s 29 36 mph 1019.6mb 53f 54f
1:50am 9ft 9s 6s 27 34 mph 1019.6mb 53f 55f
12:50am 10.5ft 9s 7s 27 34 mph 1019.7mb 53f 55f
Sat 03/28 11:50pm 10ft 9s 6s 27 29 mph 1019.9mb 54f 55f
10:50pm 10.5ft 12s 6s 29 34 mph 1019.8mb 53f 55f
9:50pm 11ft 8s 6s 29 36 mph 1019.6mb 54f 55f
8:50pm  -   -   -  34
mph
- - 55f
7:50pm 11ft 11s 6s 34 43 mph 1018.9mb 54f 55f
6:50pm 10.5ft 9s 6s 31 38 mph 1018.9mb 54f 55f
5:50pm 10ft 12s 6s 31 38 mph 1019.1mb 54f 55f
4:50pm 10ft 8s 6s 31 43 mph 1019.4mb 54f 55f
3:50pm 10ft 12s 6s 29 34 mph 1019.9mb 54f 55f
2:50pm 9ft 12s 6s 27 34 mph 1020.5mb 54f 56f